Marathon Airport
CYSP : now visible

Airfield :











YOU CAN JOIN US ON...

 
LOGIN :

Register | Disclaimer

   EN    FR    IT 

 









Legend :    VFR   Marginal VFR   IFR   Intensive IFR   Very Intensive IFR
Visi :
Ceiling :
>= 8 km
>= 3000ft
5 to 8 km
1000 to 3000 ft
1500m to 5 km
500 to 1000 ft
800 to 1500m
200 to 500 ft
< 800m
< 200 ft
Symbols :   Thunderstorms  Fog  Heavy snow  Heavy precipitations  Wind > 20 kt







- Airport Elevation : 1035 ft
- IATA code : YSP


CYSP - Marathon

CURRENT METAR :
  • 181900Z VRB04KT 1/4SM -DZ OVC002 15/15 A2963 RMK FG7SF1 SLP040 DENSITY ALT 1700FT

EXPIRED METARs :
  • 181800Z VRB04KT 1/4SM -DZ FG OVC002 16/16 A2966 RMK FG7SF1 SLP047 DENSITY ALT 1700FT
  • 181724Z 20005KT 150V260 1/4SM -DZ FG OVC002 16/16 A2968 RMK FG7SF1 SLP053 DENSITY ALT 1700FT
  • 181700Z 19004KT 130V260 1SM -DZ BR OVC002 16/16 A2968 RMK FG6SF2 SLP053 DENSITY ALT 1700FT
  • 181600Z 19005KT 130V250 1SM -DZ BR OVC002 16/16 A2968 RMK FG6SF2 SLP055 DENSITY ALT 1700FT

TAF AMD TAF CYSP
Valid from the 18 at 18:00 until the 18 at 21:00 UTC


181812Z 1818/1821 20005KT 1/4SM -DZ FG OVC002
TEMPO 1818/1821 3SM BR BKN005 OVC008 RMK NXT FCST WILL BE ISSUED AT 191345Z
CZYZ FIR / North America



MET'MAP, your aeronautical weather chart ! - Copyright ORBIFLY December 2007 - Disclaimer

ORBIFLY MET'MAP TEAM :

Programming & Development : Alexandra Zaïnal
Concept & Development : Baudouin d'Aumeries
Co-Development & Prog : Marc-Olivier Méhu
Technical & hardware support : Manuel Goepfert

Contact : metmap@orbifly.com




SOURCES & CREDITS :

   NOAA       Earth
Advisory